地図

経路データ

SID SEASON NUMBER BASIN SUBBASIN NAME ISO_TIME NATURE LAT LON WMO_WIND WMO_PRES WMO_AGENCY TRACK_TYPE DIST2LAND LANDFALL IFLAG USA_AGENCY USA_ATCF_ID USA_LAT USA_LON USA_RECORD USA_STATUS USA_WIND USA_PRES USA_SSHS USA_R34_NE USA_R34_SE USA_R34_SW USA_R34_NW USA_R50_NE USA_R50_SE USA_R50_SW USA_R50_NW USA_R64_NE USA_R64_SE USA_R64_SW USA_R64_NW USA_POCI USA_ROCI USA_RMW USA_EYE TOKYO_LAT TOKYO_LON TOKYO_GRADE TOKYO_WIND TOKYO_PRES TOKYO_R50_DIR TOKYO_R50_LONG TOKYO_R50_SHORT TOKYO_R30_DIR TOKYO_R30_LONG TOKYO_R30_SHORT TOKYO_LAND CMA_LAT CMA_LON CMA_CAT CMA_WIND CMA_PRES HKO_LAT HKO_LON HKO_CAT HKO_WIND HKO_PRES NEWDELHI_LAT NEWDELHI_LON NEWDELHI_GRADE NEWDELHI_WIND NEWDELHI_PRES NEWDELHI_CI NEWDELHI_DP NEWDELHI_POCI REUNION_LAT REUNION_LON REUNION_TYPE REUNION_WIND REUNION_PRES REUNION_TNUM REUNION_CI REUNION_RMW REUNION_R34_NE REUNION_R34_SE REUNION_R34_SW REUNION_R34_NW REUNION_R50_NE REUNION_R50_SE REUNION_R50_SW REUNION_R50_NW REUNION_R64_NE REUNION_R64_SE REUNION_R64_SW REUNION_R64_NW BOM_LAT BOM_LON BOM_TYPE BOM_WIND BOM_PRES BOM_TNUM BOM_CI BOM_RMW BOM_R34_NE BOM_R34_SE BOM_R34_SW BOM_R34_NW BOM_R50_NE BOM_R50_SE BOM_R50_SW BOM_R50_NW BOM_R64_NE BOM_R64_SE BOM_R64_SW BOM_R64_NW BOM_ROCI BOM_POCI BOM_EYE BOM_POS_METHOD BOM_PRES_METHOD NADI_LAT NADI_LON NADI_CAT NADI_WIND NADI_PRES WELLINGTON_LAT WELLINGTON_LON WELLINGTON_WIND WELLINGTON_PRES DS824_LAT DS824_LON DS824_STAGE DS824_WIND DS824_PRES TD9636_LAT TD9636_LON TD9636_STAGE TD9636_WIND TD9636_PRES TD9635_LAT TD9635_LON TD9635_WIND TD9635_PRES TD9635_ROCI NEUMANN_LAT NEUMANN_LON NEUMANN_CLASS NEUMANN_WIND NEUMANN_PRES MLC_LAT MLC_LON MLC_CLASS MLC_WIND MLC_PRES USA_GUST BOM_GUST BOM_GUST_PER REUNION_GUST REUNION_GUST_PER USA_SEAHGT USA_SEARAD_NE USA_SEARAD_SE USA_SEARAD_SW USA_SEARAD_NW STORM_SPEED STORM_DIR
1893271N20266 1893 51 NA GM NOT_NAMED 1893-09-27 12:00:00 TS 20.2000 -93.7000 spur-merge 207 207 _____________O -1 20.2000 -93.7000 TD 30 1 11
1893271N20266 1893 51 NA GM NOT_NAMED 1893-09-27 15:00:00 TS 20.2550 -93.6900 spur-merge 217 217 _____________P -1 20.2550 -93.6900 TD 30 1 0
1893271N20266 1893 51 NA GM NOT_NAMED 1893-09-27 18:00:00 TS 20.3000 -93.7000 spur-merge 217 217 _____________O -1 20.3000 -93.7000 TD 30 1 326
1893271N20266 1893 51 NA GM NOT_NAMED 1893-09-27 21:00:00 TS 20.3350 -93.7425 spur-merge 217 217 _____________P -1 20.3350 -93.7425 TD 32 1 317
1893271N20266 1893 51 NA GM NOT_NAMED 1893-09-28 00:00:00 TS 20.4000 -93.8000 spur-merge 232 232 _____________O -1 20.4000 -93.8000 TS 35 2 334
1893271N20266 1893 51 NA GM NOT_NAMED 1893-09-28 03:00:00 TS 20.5425 -93.8500 spur-merge 241 241 _____________P -1 20.5425 -93.8500 TS 40 3 343
1893271N20266 1893 51 NA GM NOT_NAMED 1893-09-28 06:00:00 TS 20.7000 -93.9000 spur-merge 261 261 _____________O -1 20.7000 -93.9000 TS 45 3 340
1893271N20266 1893 51 NA GM NOT_NAMED 1893-09-28 09:00:00 TS 20.8075 -93.9575 spur-merge 266 266 _____________P -1 20.8075 -93.9575 TS 47 2 333
1893271N20266 1893 51 NA GM NOT_NAMED 1893-09-28 12:00:00 TS 20.9000 -94.0000 spur-merge 273 273 _____________O -1 20.9000 -94.0000 TS 50 2 343
1893271N20266 1893 51 NA GM NOT_NAMED 1893-09-28 15:00:00 TS 20.9925 -94.0150 spur-merge 278 278 _____________P -1 20.9925 -94.0150 TS 52 2 8
1893271N20266 1893 51 NA GM NOT_NAMED 1893-09-28 18:00:00 TS 21.1000 -94.0000 spur-merge 283 283 _____________O -1 21.1000 -94.0000 TS 55 2 12
1893271N20266 1893 51 NA GM NOT_NAMED 1893-09-28 21:00:00 TS 21.2275 -93.9575 spur-merge 289 289 _____________P -1 21.2275 -93.9575 TS 57 3 17
1893271N20266 1893 51 NA GM NOT_NAMED 1893-09-29 00:00:00 TS 21.4000 -93.9000 spur-merge 309 309 _____________O -1 21.4000 -93.9000 TS 60 4 13
1893271N20266 1893 51 NA GM NOT_NAMED 1893-09-29 03:00:00 TS 21.6275 -93.8500 spur-merge 330 322 _____________P -1 21.6275 -93.8500 TS 60 5 11
1893271N20266 1893 51 NA GM NOT_NAMED 1893-09-29 06:00:00 TS 21.9000 -93.8000 spur-merge 350 350 _____________O -1 21.9000 -93.8000 TS 60 6 9
1893271N20266 1893 51 NA GM NOT_NAMED 1893-09-29 09:00:00 TS 22.1850 -93.7574 spur-merge 367 367 _____________P -1 22.1850 -93.7574 TS 65 6 8
1893271N20266 1893 51 NA GM NOT_NAMED 1893-09-29 12:00:00 TS 22.5000 -93.7000 spur-merge 384 384 _____________O -1 22.5000 -93.7000 HU 70 7 11
1893271N20266 1893 51 NA GM NOT_NAMED 1893-09-29 15:00:00 TS 22.8425 -93.6150 spur-merge 389 389 _____________P -1 22.8425 -93.6150 HU 72 7 15
1893271N20266 1893 51 NA GM NOT_NAMED 1893-09-29 18:00:00 TS 23.2000 -93.5000 spur-merge 404 402 _____________O -1 23.2000 -93.5000 HU 75 8 19
1893271N20266 1893 51 NA GM NOT_NAMED 1893-09-29 21:00:00 TS 23.5500 -93.3500 spur-merge 423 416 _____________P -1 23.5500 -93.3500 HU 77 8 21
1893271N20266 1893 51 NA GM NOT_NAMED 1893-09-30 00:00:00 TS 23.9000 -93.2000 spur-merge 432 432 _____________O -1 23.9000 -93.2000 HU 80 7 18
1893271N20266 1893 51 NA GM NOT_NAMED 1893-09-30 03:00:00 TS 24.2500 -93.0998 spur-merge 441 434 _____________P -1 24.2500 -93.0998 HU 82 7 15
1893271N20266 1893 51 NA GM NOT_NAMED 1893-09-30 06:00:00 TS 24.6000 -93.0000 spur-merge 437 434 _____________O -1 24.6000 -93.0000 HU 85 7 17
1893271N20266 1893 51 NA GM NOT_NAMED 1893-09-30 09:00:00 TS 24.9500 -92.8575 spur-merge 435 435 _____________P -1 24.9501 -92.8628 HU 87 8 21
1893271N20266 1893 51 NA GM NOT_NAMED 1893-09-30 12:00:00 TS 25.3000 -92.7000 spur-merge 447 425 _____________O -1 25.3000 -92.7000 HU 90 8 21
1893271N20266 1893 51 NA GM NOT_NAMED 1893-09-30 15:00:00 TS 25.6500 -92.5574 spur-merge 425 ______________ -1 HU 7 20

IBTrACS Databaseについて

本データベースは、米国NOAAが公開する1842年以降の世界の熱帯低気圧のベストトラックデータアーカイブInternational Best Track Archive for Climate Stewardship (IBTrACS)を、ウェブで閲覧しやすい形式に変換したものです。

最終更新日:2021-11-26